Time;durP1;ratioP1;P1;durP2;ratioP2;P2;SDS_P1;SDS_P2;PMS_P1;PMS_P2;Temp;Humidity;BMP_temperature;BMP_pressure;BME280_temperature;BME280_humidity;BME280_pressure;Samples;Min_cycle;Max_cycle;Signal;HPM_P1;HPM_P2
2023/12/11 00:02:11;;;;;;;0.40;0.40;;;;;;;6.28;81.83;94833.38;4953365;28;20202;-69
2023/12/11 00:04:37;;;;;;;0.50;0.50;;;;;;;6.26;81.90;94825.72;4953378;28;20265;-69
2023/12/11 00:07:02;;;;;;;0.40;0.40;;;;;;;6.26;81.49;94825.72;4951996;28;20241;-69
2023/12/11 00:09:28;;;;;;;1.40;1.30;;;;;;;6.15;81.76;94831.41;4952863;29;20210;-68
2023/12/11 00:11:53;;;;;;;0.40;0.40;;;;;;;6.12;83.17;94825.75;4953028;29;20174;-68
2023/12/11 00:14:19;;;;;;;0.50;0.50;;;;;;;6.18;82.63;94832.84;4952977;29;20182;-68
2023/12/11 00:16:46;;;;;;;0.47;0.47;;;;;;;6.09;82.86;94811.25;4952866;28;20309;-68
2023/12/11 00:19:12;;;;;;;0.57;0.57;;;;;;;6.27;82.67;94837.78;4952603;29;20214;-69
2023/12/11 00:21:38;;;;;;;0.67;0.67;;;;;;;6.19;82.82;94824.03;4952772;28;20206;-69
2023/12/11 00:24:03;;;;;;;0.50;0.50;;;;;;;6.21;82.37;94843.78;4952688;29;20606;-69
2023/12/11 00:26:29;;;;;;;0.30;0.30;;;;;;;6.18;82.80;94840.69;4952776;28;20178;-69
2023/12/11 00:28:54;;;;;;;0.40;0.40;;;;;;;6.18;83.24;94848.53;4952852;29;20184;-69
2023/12/11 00:31:20;;;;;;;0.40;0.40;;;;;;;6.16;82.99;94845.28;4952471;29;20193;-69
2023/12/11 00:33:45;;;;;;;0.40;0.40;;;;;;;6.19;83.13;94847.56;4952684;28;20229;-69
2023/12/11 00:36:11;;;;;;;0.40;0.40;;;;;;;6.20;83.06;94847.38;4952483;28;20210;-69
2023/12/11 00:38:36;;;;;;;0.40;0.40;;;;;;;6.16;82.90;94833.03;4952472;29;20201;-69
2023/12/11 00:41:02;;;;;;;0.40;0.40;;;;;;;6.30;82.61;94847.88;4952568;29;20182;-69
2023/12/11 00:43:27;;;;;;;0.40;0.40;;;;;;;6.32;82.55;94847.69;4952633;29;20603;-69
2023/12/11 00:45:53;;;;;;;18.17;16.93;;;;;;;6.26;82.48;94851.84;4952760;29;20557;-69
2023/12/11 00:48:18;;;;;;;0.40;0.40;;;;;;;6.26;82.60;94856.25;4959237;28;20196;-69
2023/12/11 00:50:44;;;;;;;0.40;0.40;;;;;;;6.27;82.67;94858.69;4971643;28;20193;-69
2023/12/11 00:53:10;;;;;;;0.50;0.50;;;;;;;6.24;82.31;94863.47;4971563;28;20181;-69
2023/12/11 00:55:35;;;;;;;0.40;0.40;;;;;;;6.22;82.14;94855.84;4971572;28;20201;-69
2023/12/11 00:58:01;;;;;;;0.40;0.40;;;;;;;6.21;82.32;94858.63;4971426;28;20177;-69
2023/12/11 01:00:26;;;;;;;0.40;0.40;;;;;;;6.18;82.74;94846.72;4971612;28;20213;-69
2023/12/11 01:02:52;;;;;;;0.40;0.40;;;;;;;6.07;82.68;94848.00;4971745;28;20220;-69
2023/12/11 01:05:17;;;;;;;0.40;0.40;;;;;;;5.91;83.00;94840.38;4971532;28;20190;-69
2023/12/11 01:07:43;;;;;;;1.00;1.00;;;;;;;5.76;83.71;94849.19;4971430;28;20253;-69
2023/12/11 01:10:09;;;;;;;0.43;0.43;;;;;;;5.83;84.20;94850.91;4971376;28;20213;-69
2023/12/11 01:12:35;;;;;;;0.40;0.40;;;;;;;5.89;83.94;94852.81;4971476;28;20567;-69
2023/12/11 01:15:01;;;;;;;0.40;0.40;;;;;;;5.89;84.27;94844.97;4971467;28;20185;-68
2023/12/11 01:17:27;;;;;;;0.40;0.40;;;;;;;6.00;83.92;94852.34;4973810;28;20267;-68
2023/12/11 01:19:53;;;;;;;0.40;0.40;;;;;;;6.12;83.26;94849.28;4977812;28;20193;-69
2023/12/11 01:22:18;;;;;;;0.50;0.50;;;;;;;6.17;82.93;94846.91;4977797;28;20181;-69
2023/12/11 01:24:44;;;;;;;0.50;0.50;;;;;;;6.17;82.41;94844.31;4977990;28;20169;-69
2023/12/11 01:27:09;;;;;;;0.40;0.40;;;;;;;6.17;82.60;94845.13;4977756;28;20555;-69
2023/12/11 01:29:35;;;;;;;0.83;0.83;;;;;;;6.09;82.18;94845.22;4977668;28;20181;-69
2023/12/11 01:32:00;;;;;;;0.70;0.70;;;;;;;6.03;82.43;94832.91;4977658;28;20260;-70
2023/12/11 01:34:26;;;;;;;0.40;0.40;;;;;;;6.12;82.41;94841.44;4977550;28;20237;-69
2023/12/11 01:36:51;;;;;;;0.40;0.40;;;;;;;6.20;82.28;94852.59;4977635;28;20193;-69
2023/12/11 01:39:17;;;;;;;0.50;0.50;;;;;;;6.26;82.58;94843.19;4977671;28;20193;-69
2023/12/11 01:41:42;;;;;;;0.40;0.40;;;;;;;6.30;82.10;94837.44;4977574;28;20185;-69
2023/12/11 01:44:08;;;;;;;0.40;0.40;;;;;;;6.37;82.26;94835.69;4977708;28;20185;-69
2023/12/11 01:46:33;;;;;;;0.40;0.40;;;;;;;6.39;81.73;94822.44;4977597;28;20178;-69
2023/12/11 01:48:59;;;;;;;0.40;0.40;;;;;;;6.47;81.60;94829.34;4977537;28;20174;-69
2023/12/11 01:51:25;;;;;;;0.73;0.73;;;;;;;6.52;81.08;94834.81;4977403;28;20643;-69
2023/12/11 01:53:51;;;;;;;0.50;0.50;;;;;;;6.54;80.75;94836.25;4977619;28;20181;-69
2023/12/11 01:56:18;;;;;;;0.40;0.40;;;;;;;6.54;80.77;94838.06;4977576;28;20209;-69
2023/12/11 01:58:45;;;;;;;0.40;0.40;;;;;;;6.55;80.51;94829.22;4977327;28;20185;-69
2023/12/11 02:01:13;;;;;;;0.40;0.40;;;;;;;6.58;80.81;94823.59;4977487;28;20205;-69
2023/12/11 02:03:40;;;;;;;0.43;0.43;;;;;;;6.59;80.54;94826.03;4977355;28;20189;-69
2023/12/11 02:06:06;;;;;;;0.40;0.40;;;;;;;6.59;80.61;94826.03;4977460;28;20166;-69
2023/12/11 02:08:32;;;;;;;0.73;0.73;;;;;;;6.58;80.36;94823.59;4961930;28;20183;-69
2023/12/11 02:10:58;;;;;;;0.60;0.60;;;;;;;6.55;80.31;94822.19;4956695;29;20532;-69
2023/12/11 02:13:23;;;;;;;0.50;0.50;;;;;;;6.57;80.37;94827.25;4957997;28;20186;-69
2023/12/11 02:15:50;;;;;;;0.40;0.40;;;;;;;6.54;79.87;94820.56;4957723;28;20310;-69
2023/12/11 02:18:16;;;;;;;0.40;0.40;;;;;;;6.42;79.91;94811.59;4957709;29;20609;-69
2023/12/11 02:20:43;;;;;;;0.50;0.50;;;;;;;6.50;80.03;94834.19;4957754;28;20225;-69
2023/12/11 02:23:16;;;;;;;1.80;1.70;;;;;;;6.40;79.85;94832.69;4957817;28;20682;-69
2023/12/11 02:25:45;;;;;;;0.40;0.40;;;;;;;6.29;79.69;94838.44;4957664;28;20253;-69
2023/12/11 02:28:11;;;;;;;0.50;0.50;;;;;;;6.20;80.06;94836.91;4957516;28;20237;-68
2023/12/11 02:30:37;;;;;;;0.50;0.50;;;;;;;6.19;81.83;94834.47;4954275;28;20178;-68
2023/12/11 02:33:03;;;;;;;1.80;1.70;;;;;;;6.10;82.15;94818.09;4954719;29;20186;-68
2023/12/11 02:35:29;;;;;;;0.40;0.40;;;;;;;6.03;82.36;94817.22;4954564;28;20194;-68
2023/12/11 02:37:54;;;;;;;0.40;0.40;;;;;;;6.04;81.40;94843.19;4954712;28;20237;-68
2023/12/11 02:40:20;;;;;;;0.40;0.40;;;;;;;5.91;81.50;94829.94;4954580;28;20599;-69
2023/12/11 02:42:47;;;;;;;0.40;0.40;;;;;;;5.89;81.51;94831.91;4954759;28;20216;-68
2023/12/11 02:45:13;;;;;;;0.40;0.40;;;;;;;5.75;81.85;94819.66;4954663;28;20170;-69
2023/12/11 02:47:39;;;;;;;0.40;0.40;;;;;;;5.80;82.02;94832.97;4954645;28;20687;-69
2023/12/11 02:50:05;;;;;;;0.90;0.90;;;;;;;5.72;81.81;94827.84;4954536;28;20213;-69
2023/12/11 02:52:30;;;;;;;0.40;0.40;;;;;;;5.78;82.23;94839.41;4954756;28;20182;-69
2023/12/11 02:54:56;;;;;;;0.40;0.40;;;;;;;5.74;82.16;94835.50;4954546;28;20448;-69
2023/12/11 02:57:21;;;;;;;0.40;0.40;;;;;;;5.76;82.01;94844.78;4954478;28;20198;-69
2023/12/11 02:59:47;;;;;;;0.40;0.40;;;;;;;5.78;81.80;94842.81;4954616;28;20325;-68
2023/12/11 03:02:12;;;;;;;0.50;0.50;;;;;;;5.76;82.22;94842.19;4954368;28;20257;-68
2023/12/11 03:04:38;;;;;;;0.40;0.40;;;;;;;5.79;82.08;94838.41;4954261;29;20202;-68
2023/12/11 03:07:03;;;;;;;0.40;0.40;;;;;;;5.76;82.42;94841.38;4954202;28;20182;-68
2023/12/11 03:09:29;;;;;;;0.40;0.40;;;;;;;5.76;82.20;94833.53;4954232;28;20675;-68
2023/12/11 03:11:54;;;;;;;0.40;0.40;;;;;;;5.70;82.35;94824.63;4954173;29;20178;-69
2023/12/11 03:14:20;;;;;;;0.40;0.40;;;;;;;5.79;82.29;94822.72;4954025;29;20193;-68
2023/12/11 03:16:48;;;;;;;0.43;0.43;;;;;;;5.78;82.08;94811.47;4953796;28;20293;-69
2023/12/11 03:19:16;;;;;;;0.40;0.40;;;;;;;5.77;81.50;94822.09;4954136;28;20174;-69
2023/12/11 03:21:41;;;;;;;0.70;0.70;;;;;;;5.73;81.77;94816.41;4954106;28;20182;-69
2023/12/11 03:24:07;;;;;;;0.40;0.40;;;;;;;5.75;81.09;94819.66;4953863;29;20189;-68
2023/12/11 03:26:32;;;;;;;0.50;0.50;;;;;;;5.75;81.27;94821.47;4953844;29;20182;-69
2023/12/11 03:28:58;;;;;;;0.40;0.40;;;;;;;5.67;80.80;94825.81;4953748;29;20174;-69
2023/12/11 03:31:23;;;;;;;0.50;0.50;;;;;;;5.59;81.39;94820.69;4953661;28;20186;-69
2023/12/11 03:33:49;;;;;;;0.50;0.50;;;;;;;5.39;81.99;94806.53;4953807;29;20683;-68
2023/12/11 03:36:14;;;;;;;0.50;0.50;;;;;;;5.32;82.62;94819.50;4953585;28;20213;-68
2023/12/11 03:38:39;;;;;;;0.40;0.40;;;;;;;5.23;83.04;94811.94;4953523;29;20551;-69
2023/12/11 03:41:05;;;;;;;0.40;0.40;;;;;;;5.21;83.44;94811.28;4952372;28;20233;-68
2023/12/11 03:43:31;;;;;;;0.70;0.70;;;;;;;5.22;83.58;94813.72;4953627;29;20190;-68
2023/12/11 03:45:56;;;;;;;0.50;0.50;;;;;;;5.24;83.22;94816.97;4953544;29;20174;-68
2023/12/11 03:48:22;;;;;;;0.50;0.50;;;;;;;5.23;83.12;94811.94;4953541;28;20179;-68
2023/12/11 03:50:47;;;;;;;0.60;0.60;;;;;;;5.28;83.31;94814.81;4953135;29;20182;-69
2023/12/11 03:53:13;;;;;;;0.60;0.60;;;;;;;5.29;83.48;94812.03;4952952;28;20178;-69
2023/12/11 03:55:39;;;;;;;0.50;0.50;;;;;;;5.27;83.34;94819.25;4952687;28;20210;-69
2023/12/11 03:58:04;;;;;;;0.40;0.40;;;;;;;5.39;83.25;94814.38;4953131;28;20566;-68
2023/12/11 04:00:30;;;;;;;0.40;0.40;;;;;;;5.43;83.12;94814.81;4953074;28;20210;-69
2023/12/11 04:02:56;;;;;;;0.50;0.50;;;;;;;5.49;83.42;94821.94;4953165;29;20273;-68
2023/12/11 04:05:21;;;;;;;0.40;0.40;;;;;;;5.52;83.12;94811.13;4953188;28;20186;-68
2023/12/11 04:07:47;;;;;;;0.50;0.50;;;;;;;5.57;83.03;94820.03;4953027;28;20185;-68
2023/12/11 04:10:12;;;;;;;0.60;0.60;;;;;;;5.66;82.72;94821.56;4952831;28;20209;-68
2023/12/11 04:12:41;;;;;;;0.40;0.40;;;;;;;5.72;82.82;94817.41;4952770;29;20188;-68
2023/12/11 04:15:07;;;;;;;0.30;0.30;;;;;;;5.74;82.65;94825.06;4952872;28;20190;-71
2023/12/11 04:17:33;;;;;;;0.40;0.40;;;;;;;5.76;82.44;94817.88;4953021;28;20706;-68
2023/12/11 04:19:58;;;;;;;0.50;0.50;;;;;;;5.79;82.41;94822.72;4952869;28;20272;-68
2023/12/11 04:22:24;;;;;;;2.70;2.60;;;;;;;5.83;82.38;94823.97;4951640;28;20178;-68
2023/12/11 04:24:49;;;;;;;2.20;2.10;;;;;;;5.65;82.18;94796.44;4953168;28;20218;-69
2023/12/11 04:27:15;;;;;;;2.70;2.50;;;;;;;5.87;82.54;94830.47;4953303;29;20178;-68
2023/12/11 04:29:40;;;;;;;0.40;0.40;;;;;;;5.84;82.34;94820.38;4952726;28;20189;-68
2023/12/11 04:32:06;;;;;;;0.50;0.50;;;;;;;5.89;82.25;94816.25;4952727;28;20189;-68
2023/12/11 04:34:31;;;;;;;0.50;0.50;;;;;;;5.94;82.58;94823.53;4952631;28;20182;-67
2023/12/11 04:36:57;;;;;;;0.43;0.43;;;;;;;5.86;82.41;94793.09;4951208;28;20301;-67
2023/12/11 04:39:22;;;;;;;0.60;0.60;;;;;;;6.01;82.28;94813.97;4952538;28;20190;-67
2023/12/11 04:41:48;;;;;;;0.50;0.50;;;;;;;6.00;81.82;94813.16;4952671;29;20213;-67
2023/12/11 04:44:13;;;;;;;0.40;0.40;;;;;;;6.09;81.89;94820.91;4952537;28;20190;-67
2023/12/11 04:46:39;;;;;;;0.40;0.40;;;;;;;6.11;81.54;94824.13;4952453;29;20198;-67
2023/12/11 04:49:04;;;;;;;0.43;0.43;;;;;;;6.13;81.47;94820.34;4952436;29;20598;-68
2023/12/11 04:51:30;;;;;;;0.83;0.83;;;;;;;6.17;81.41;94826.00;4952143;28;20187;-68
2023/12/11 04:53:55;;;;;;;1.03;1.03;;;;;;;6.18;81.91;94828.44;4952624;29;20600;-68
2023/12/11 04:56:23;;;;;;;0.40;0.40;;;;;;;6.18;81.81;94822.41;4952544;28;20207;-68
2023/12/11 04:58:49;;;;;;;0.30;0.30;;;;;;;6.19;82.16;94829.25;4952421;28;20194;-68
2023/12/11 05:01:14;;;;;;;1.93;1.80;;;;;;;6.28;81.88;94828.97;4952463;29;20241;-68
2023/12/11 05:03:40;;;;;;;0.50;0.50;;;;;;;6.29;81.30;94825.34;4952555;29;20182;-68
2023/12/11 05:06:05;;;;;;;1.37;1.27;;;;;;;6.31;81.11;94819.94;4952440;28;20597;-68
2023/12/11 05:08:31;;;;;;;0.43;0.43;;;;;;;6.32;80.93;94827.59;4952085;28;20182;-68
2023/12/11 05:10:56;;;;;;;0.40;0.40;;;;;;;6.31;81.11;94830.41;4952363;28;20221;-68
2023/12/11 05:13:22;;;;;;;0.50;0.50;;;;;;;6.31;81.18;94819.94;4952187;28;20237;-67
2023/12/11 05:15:47;;;;;;;0.50;0.50;;;;;;;6.32;81.72;94822.34;4951882;28;20234;-68
2023/12/11 05:18:13;;;;;;;0.40;0.40;;;;;;;6.32;81.90;94830.19;4951794;28;20179;-67
2023/12/11 05:20:38;;;;;;;0.50;0.50;;;;;;;6.36;81.78;94830.66;4952106;29;20629;-67
2023/12/11 05:23:04;;;;;;;0.40;0.40;;;;;;;6.36;81.63;94823.63;4951957;28;20178;-68
2023/12/11 05:25:29;;;;;;;0.40;0.40;;;;;;;6.43;81.17;94831.53;4968112;28;20201;-68
2023/12/11 05:27:55;;;;;;;0.40;0.40;;;;;;;6.43;81.26;94837.56;4971326;28;20260;-68
2023/12/11 05:30:20;;;;;;;2.30;2.00;;;;;;;6.47;80.61;94837.19;4971291;28;20545;-68
2023/12/11 05:32:45;;;;;;;0.40;0.40;;;;;;;6.38;80.67;94834.72;4971514;28;20196;-68
2023/12/11 05:35:11;;;;;;;0.40;0.40;;;;;;;6.41;80.09;94836.13;4971267;28;20181;-68
2023/12/11 05:37:36;;;;;;;0.40;0.40;;;;;;;6.47;80.22;94842.44;4971398;28;20182;-68
2023/12/11 05:40:03;;;;;;;0.40;0.40;;;;;;;6.49;79.51;94850.91;4969659;28;20250;-68
2023/12/11 05:42:29;;;;;;;0.40;0.40;;;;;;;6.59;79.30;94851.38;4968257;28;20188;-68
2023/12/11 05:44:54;;;;;;;1.90;1.80;;;;;;;6.62;78.67;94856.25;4971345;28;20568;-68
2023/12/11 05:47:20;;;;;;;0.40;0.40;;;;;;;6.66;78.57;94845.22;4971071;28;20257;-68
2023/12/11 05:49:45;;;;;;;0.43;0.43;;;;;;;6.73;78.92;94847.91;4964126;28;20609;-68
2023/12/11 05:52:11;;;;;;;0.40;0.40;;;;;;;6.79;79.03;94857.63;4951135;28;20206;-69
2023/12/11 05:54:36;;;;;;;0.30;0.30;;;;;;;6.87;79.17;94861.91;4951674;29;20186;-69
2023/12/11 05:57:02;;;;;;;0.40;0.40;;;;;;;6.91;79.12;94869.22;4951577;29;20210;-68
2023/12/11 05:59:27;;;;;;;1.57;1.47;;;;;;;6.92;78.94;94870.81;4951856;28;20656;-69
2023/12/11 06:01:53;;;;;;;1.63;1.63;;;;;;;6.91;78.83;94882.31;4951961;28;20174;-68
2023/12/11 06:04:18;;;;;;;0.50;0.50;;;;;;;6.90;78.99;94878.06;4952786;28;20201;-68
2023/12/11 06:06:44;;;;;;;3.47;2.33;;;;;;;6.91;79.15;94871.84;4954483;28;20171;-68
2023/12/11 06:09:09;;;;;;;0.83;0.83;;;;;;;6.90;78.59;94866.78;4955328;29;20648;-69
2023/12/11 06:11:35;;;;;;;1.00;1.00;;;;;;;6.88;78.68;94861.72;4955334;29;20675;-68
2023/12/11 06:14:00;;;;;;;0.40;0.40;;;;;;;6.86;78.82;94862.91;4955349;28;20222;-69
2023/12/11 06:16:25;;;;;;;0.30;0.30;;;;;;;6.80;78.92;94869.72;4955135;29;20313;-69
2023/12/11 06:18:51;;;;;;;0.73;0.70;;;;;;;6.71;79.42;94865.59;4954883;28;20186;-69
2023/12/11 06:21:18;;;;;;;0.40;0.40;;;;;;;6.69;79.55;94872.81;4954999;29;20285;-69
2023/12/11 06:23:43;;;;;;;0.50;0.50;;;;;;;6.62;80.19;94872.75;4954898;28;20254;-69
2023/12/11 06:26:09;;;;;;;0.47;0.47;;;;;;;6.65;80.17;94875.00;4954917;28;20202;-69
2023/12/11 06:28:34;;;;;;;0.60;0.60;;;;;;;6.67;80.47;94877.41;4955137;28;20175;-69
2023/12/11 06:31:00;;;;;;;0.57;0.57;;;;;;;6.68;80.20;94879.03;4954959;28;20244;-69
2023/12/11 06:33:25;;;;;;;3.30;1.67;;;;;;;6.69;80.29;94872.81;4954993;29;20193;-69
2023/12/11 06:35:51;;;;;;;0.30;0.30;;;;;;;6.78;80.40;94874.31;4954790;28;20234;-69
2023/12/11 06:38:17;;;;;;;0.97;0.97;;;;;;;6.80;80.63;94874.94;4954873;28;20189;-68
2023/12/11 06:40:42;;;;;;;0.30;0.30;;;;;;;6.90;79.89;94869.41;4954824;28;20178;-68
2023/12/11 06:43:08;;;;;;;0.30;0.30;;;;;;;6.96;79.72;94876.50;4954685;29;20692;-69
2023/12/11 06:45:33;;;;;;;0.40;0.40;;;;;;;6.94;79.57;94868.00;4954678;29;20180;-69
2023/12/11 06:47:59;;;;;;;2.37;2.23;;;;;;;7.01;79.62;94872.31;4954783;29;20213;-69
2023/12/11 06:50:24;;;;;;;0.40;0.40;;;;;;;7.07;78.70;94874.19;4954854;28;20190;-69
2023/12/11 06:52:49;;;;;;;0.50;0.50;;;;;;;7.20;78.64;94866.44;4951137;28;20652;-68
2023/12/11 06:55:15;;;;;;;0.50;0.50;;;;;;;7.28;78.30;94872.53;4954229;28;20242;-69
2023/12/11 06:57:41;;;;;;;0.40;0.40;;;;;;;7.35;78.35;94874.19;4954396;29;20177;-68
2023/12/11 07:00:09;;;;;;;0.40;0.40;;;;;;;7.37;77.94;94872.19;4954552;28;20741;-68
2023/12/11 07:02:35;;;;;;;0.40;0.40;;;;;;;7.89;78.33;94886.63;4954303;28;20182;-70
2023/12/11 07:05:00;;;;;;;0.40;0.40;;;;;;;8.40;75.72;94894.16;4954412;28;20186;-70
2023/12/11 07:07:26;;;;;;;0.50;0.50;;;;;;;8.58;73.39;94891.78;4954403;28;20675;-70
2023/12/11 07:09:51;;;;;;;0.87;0.87;;;;;;;8.65;72.85;94903.09;4954467;28;20174;-70
2023/12/11 07:12:17;;;;;;;2.90;1.07;;;;;;;8.61;72.34;94909.78;4954193;28;20614;-69
2023/12/11 07:14:44;;;;;;;0.40;0.40;;;;;;;8.57;72.39;94900.66;4953787;28;20182;-71
2023/12/11 07:17:09;;;;;;;0.30;0.30;;;;;;;8.59;72.35;94917.84;4954016;29;20226;-70
2023/12/11 07:19:35;;;;;;;0.40;0.40;;;;;;;8.50;72.49;94919.00;4954193;28;20181;-70
2023/12/11 07:22:00;;;;;;;0.33;0.33;;;;;;;8.41;72.76;94922.81;4954069;29;20185;-69
2023/12/11 07:24:26;;;;;;;1.13;1.03;;;;;;;8.32;73.68;94924.78;4954155;28;20632;-70
2023/12/11 07:26:52;;;;;;;0.40;0.40;;;;;;;8.28;73.57;94926.16;4954060;29;20185;-69
2023/12/11 07:29:17;;;;;;;0.40;0.40;;;;;;;8.20;74.52;94931.56;4953909;28;20273;-70
2023/12/11 07:31:43;;;;;;;0.43;0.43;;;;;;;8.17;74.11;94929.34;4952880;28;20186;-70
2023/12/11 07:34:08;;;;;;;0.40;0.40;;;;;;;8.17;74.51;94931.13;4953907;29;20194;-69
2023/12/11 07:36:34;;;;;;;0.67;0.67;;;;;;;8.17;74.30;94931.94;4953820;29;20296;-69
2023/12/11 07:38:59;;;;;;;0.70;0.70;;;;;;;8.17;74.87;94933.75;4953769;28;20241;-70
2023/12/11 07:41:25;;;;;;;0.40;0.40;;;;;;;8.19;74.79;94923.91;4953630;28;20186;-70
2023/12/11 07:43:50;;;;;;;0.40;0.40;;;;;;;8.10;74.98;94920.63;4953514;28;20201;-70
2023/12/11 07:46:19;;;;;;;0.57;0.57;;;;;;;8.28;74.92;94933.22;4953553;28;20266;-70
2023/12/11 07:48:46;;;;;;;0.50;0.50;;;;;;;8.27;74.84;94937.66;4953585;28;20178;-69
2023/12/11 07:51:23;;;;;;;0.50;0.50;;;;;;;8.36;74.65;94946.19;4953581;28;20182;-70
2023/12/11 07:53:49;;;;;;;0.30;0.30;;;;;;;8.38;74.31;94935.53;4953438;28;20206;-69
2023/12/11 07:56:21;;;;;;;0.50;0.50;;;;;;;8.40;74.03;94934.31;4952460;28;20304;-69
2023/12/11 07:58:47;;;;;;;0.40;0.40;;;;;;;8.40;74.21;94936.94;4953211;28;20692;-70
2023/12/11 08:01:13;;;;;;;2.00;1.90;;;;;;;8.42;73.84;94941.97;4952896;28;20205;-70
2023/12/11 08:03:38;;;;;;;0.57;0.57;;;;;;;8.45;74.25;94942.41;4952863;29;20568;-70
2023/12/11 08:06:04;;;;;;;0.70;0.70;;;;;;;8.43;74.25;94939.16;4952808;28;20656;-70
2023/12/11 08:08:29;;;;;;;0.40;0.40;;;;;;;8.50;73.50;94940.00;4953173;28;20187;-70
2023/12/11 08:10:55;;;;;;;3.90;3.70;;;;;;;8.57;73.56;94934.78;4953450;29;20186;-70
2023/12/11 08:13:20;;;;;;;0.50;0.50;;;;;;;8.64;73.25;94944.31;4953122;29;20186;-70
2023/12/11 08:15:46;;;;;;;0.40;0.40;;;;;;;8.74;73.24;94929.97;4952846;29;20230;-70
2023/12/11 08:18:11;;;;;;;0.50;0.50;;;;;;;8.83;73.46;94939.28;4956514;28;20190;-68
2023/12/11 08:20:37;;;;;;;0.53;0.53;;;;;;;8.87;72.92;94937.91;4952836;28;20241;-68
2023/12/11 08:23:02;;;;;;;0.60;0.60;;;;;;;8.89;72.14;94941.16;4965106;28;20193;-69
2023/12/11 08:25:28;;;;;;;0.67;0.67;;;;;;;8.87;73.01;94945.78;4972277;28;20662;-69
2023/12/11 08:27:54;;;;;;;0.40;0.40;;;;;;;8.85;73.11;94932.03;4971562;28;20177;-68
2023/12/11 08:30:19;;;;;;;0.90;0.90;;;;;;;9.08;72.72;94935.16;4971939;28;20261;-67
2023/12/11 08:32:45;;;;;;;0.40;0.40;;;;;;;9.29;73.04;94932.34;4958099;28;20209;-68
2023/12/11 08:35:10;;;;;;;0.50;0.50;;;;;;;9.45;72.35;94936.38;4952756;29;20755;-67
2023/12/11 08:37:36;;;;;;;0.50;0.50;;;;;;;9.58;72.06;94932.97;4971764;28;20272;-68
2023/12/11 08:40:04;;;;;;;0.40;0.40;;;;;;;9.74;71.66;94927.28;4955752;28;20182;-69
2023/12/11 08:42:32;;;;;;;0.40;0.40;;;;;;;9.88;70.69;94936.75;4952669;28;20175;-69
2023/12/11 08:44:58;;;;;;;0.80;0.80;;;;;;;9.83;70.26;94910.28;4952576;28;20685;-68
2023/12/11 08:47:24;;;;;;;0.40;0.40;;;;;;;10.02;68.67;94929.69;4952681;28;20191;-68
2023/12/11 08:49:50;;;;;;;0.40;0.40;;;;;;;10.02;68.10;94930.50;4952715;28;20197;-69
2023/12/11 08:52:15;;;;;;;0.67;0.67;;;;;;;9.98;67.45;94931.09;4959403;28;20663;-68
2023/12/11 08:54:41;;;;;;;4.20;1.13;;;;;;;10.07;68.42;94914.88;4971728;28;20201;-69
2023/12/11 08:57:07;;;;;;;1.23;1.23;;;;;;;10.25;69.38;94916.09;4971627;28;21058;-69
2023/12/11 08:59:32;;;;;;;0.60;0.60;;;;;;;10.50;69.10;94912.56;4971573;28;20174;-69
2023/12/11 09:01:58;;;;;;;0.97;0.97;;;;;;;10.87;68.93;94907.53;4971760;28;20189;-69
2023/12/11 09:04:23;;;;;;;0.40;0.40;;;;;;;11.40;66.89;94912.47;4971718;28;20178;-69
2023/12/11 09:06:49;;;;;;;0.40;0.40;;;;;;;11.96;63.23;94923.78;4955880;28;20194;-68
2023/12/11 09:09:14;;;;;;;1.20;1.10;;;;;;;12.31;59.31;94905.56;4950935;28;20204;-69
2023/12/11 09:11:40;;;;;;;0.40;0.40;;;;;;;12.56;57.57;94904.66;4952055;29;20644;-67
2023/12/11 09:14:05;;;;;;;0.40;0.40;;;;;;;12.67;57.40;94898.63;4952385;28;20657;-68
2023/12/11 09:16:31;;;;;;;0.50;0.50;;;;;;;12.91;56.88;94879.22;4951952;28;20230;-69
2023/12/11 09:18:56;;;;;;;0.67;0.67;;;;;;;13.03;55.83;94858.94;4956901;28;20174;-68
2023/12/11 09:21:22;;;;;;;0.40;0.40;;;;;;;13.13;54.86;94867.16;4950727;28;20186;-68
2023/12/11 09:23:48;;;;;;;0.53;0.53;;;;;;;12.97;55.05;94857.19;4952012;28;20680;-68
2023/12/11 09:26:13;;;;;;;0.70;0.70;;;;;;;12.84;54.77;94852.09;4952084;28;20198;-69
2023/12/11 09:28:39;;;;;;;0.57;0.57;;;;;;;12.88;55.42;94845.34;4952146;28;20213;-68
2023/12/11 09:31:05;;;;;;;0.50;0.50;;;;;;;13.09;54.29;94852.72;4952305;28;20190;-69
2023/12/11 09:33:30;;;;;;;0.40;0.40;;;;;;;13.18;54.31;94853.25;4952344;28;20186;-69
2023/12/11 09:35:56;;;;;;;0.40;0.40;;;;;;;13.15;54.16;94841.28;4951977;28;20212;-69
2023/12/11 09:38:22;;;;;;;0.47;0.47;;;;;;;13.04;54.28;94823.53;4954807;28;20174;-69
2023/12/11 09:40:47;;;;;;;0.40;0.40;;;;;;;12.84;54.60;94841.50;4956009;29;20192;-69
2023/12/11 09:43:16;;;;;;;5.53;2.00;;;;;;;12.73;54.82;94848.34;4956029;29;20209;-69
2023/12/11 09:45:42;;;;;;;0.87;0.87;;;;;;;12.64;55.59;94840.97;4955755;28;20201;-69
2023/12/11 09:48:08;;;;;;;0.50;0.50;;;;;;;12.65;54.83;94839.94;4955687;28;20186;-69
2023/12/11 09:50:36;;;;;;;0.40;0.40;;;;;;;12.44;56.16;94833.34;4955112;28;20193;-69
2023/12/11 09:53:03;;;;;;;0.50;0.50;;;;;;;12.31;56.28;94828.19;4955228;28;20685;-69
2023/12/11 09:55:29;;;;;;;0.97;0.97;;;;;;;12.24;56.62;94823.00;4955568;28;20251;-69
2023/12/11 09:57:55;;;;;;;1.47;1.37;;;;;;;12.22;56.74;94819.78;4955635;29;20182;-69
2023/12/11 10:00:20;;;;;;;1.23;0.50;;;;;;;12.19;57.11;94817.59;4955686;28;20190;-68
2023/12/11 10:02:53;;;;;;;1.43;1.40;;;;;;;12.29;58.26;94817.84;4955365;29;20174;-69
2023/12/11 10:05:25;;;;;;;0.40;0.40;;;;;;;12.33;58.25;94799.75;4955409;28;20187;-68
2023/12/11 10:07:51;;;;;;;0.40;0.40;;;;;;;12.20;58.01;94789.34;4955471;28;20251;-68
2023/12/11 10:10:25;;;;;;;0.40;0.40;;;;;;;12.23;58.52;94800.28;4955816;28;20706;-68
2023/12/11 10:12:51;;;;;;;0.60;0.60;;;;;;;12.19;58.62;94806.22;4955398;28;20190;-68
2023/12/11 10:15:28;;;;;;;0.77;0.77;;;;;;;12.15;58.40;94808.50;4954878;28;20190;-69
2023/12/11 10:18:04;;;;;;;0.40;0.40;;;;;;;12.16;58.63;94804.84;4955130;28;20261;-68
2023/12/11 10:20:31;;;;;;;0.60;0.60;;;;;;;12.12;58.14;94813.41;4955105;29;20241;-69
2023/12/11 10:22:57;;;;;;;0.50;0.50;;;;;;;11.98;58.38;94796.94;4955048;28;20237;-69
2023/12/11 10:25:29;;;;;;;0.40;0.40;;;;;;;12.06;58.19;94797.44;4955039;28;20187;-69
2023/12/11 10:28:05;;;;;;;0.50;0.50;;;;;;;12.12;57.87;94793.09;4954870;28;20265;-69
2023/12/11 10:30:31;;;;;;;0.50;0.50;;;;;;;12.07;59.00;94785.06;4955015;28;20261;-69
2023/12/11 10:33:01;;;;;;;2.33;0.93;;;;;;;12.12;59.10;94787.81;4964783;28;20233;-69
2023/12/11 10:35:27;;;;;;;0.50;0.50;;;;;;;12.07;59.16;94785.88;4967964;28;20193;-69
2023/12/11 10:38:02;;;;;;;0.73;0.73;;;;;;;12.08;59.06;94790.13;4966889;28;20191;-68
2023/12/11 10:40:40;;;;;;;0.50;0.50;;;;;;;11.99;59.47;94786.16;4959725;28;20269;-68
2023/12/11 10:43:06;;;;;;;0.40;0.40;;;;;;;11.86;59.96;94788.94;4973775;28;20671;-68
2023/12/11 10:45:34;;;;;;;0.70;0.70;;;;;;;11.80;60.63;94789.81;4973862;28;20271;-68
2023/12/11 10:48:01;;;;;;;0.40;0.40;;;;;;;11.68;60.97;94783.63;4964334;28;20649;-68
2023/12/11 10:50:27;;;;;;;0.83;0.83;;;;;;;11.60;60.64;94781.28;4964031;28;20181;-68
2023/12/11 10:52:53;;;;;;;0.50;0.50;;;;;;;11.55;60.97;94776.66;4963705;28;20243;-68
2023/12/11 10:55:19;;;;;;;0.40;0.40;;;;;;;11.50;61.52;94776.50;4955842;28;20190;-68
2023/12/11 10:57:46;;;;;;;2.57;2.47;;;;;;;11.45;61.28;94770.28;4954590;28;20198;-68
2023/12/11 11:00:13;;;;;;;0.40;0.40;;;;;;;11.34;62.01;94777.88;4954177;28;20539;-68
2023/12/11 11:02:43;;;;;;;0.40;0.40;;;;;;;11.32;61.99;94765.97;4959592;28;20178;-68
2023/12/11 11:05:09;;;;;;;0.40;0.40;;;;;;;11.28;61.83;94762.94;4958443;28;20185;-69
2023/12/11 11:07:38;;;;;;;0.50;0.50;;;;;;;11.25;62.34;94744.13;4953842;28;20178;-69
2023/12/11 11:10:13;;;;;;;0.40;0.40;;;;;;;11.23;62.17;94741.72;4952807;28;20221;-68
2023/12/11 11:13:01;;;;;;;0.40;0.40;;;;;;;11.25;61.58;94744.13;4953797;28;20185;-68
2023/12/11 11:15:27;;;;;;;0.40;0.40;;;;;;;11.27;61.32;94732.34;4953052;28;20198;-69
2023/12/11 11:17:59;;;;;;;0.50;0.50;;;;;;;11.29;62.04;94718.94;4953442;28;20566;-69
2023/12/11 11:20:26;;;;;;;0.40;0.40;;;;;;;11.40;61.84;94734.06;4953537;28;20195;-69
2023/12/11 11:23:12;;;;;;;0.70;0.70;;;;;;;11.43;61.72;94740.69;4953642;28;20317;-70
2023/12/11 11:25:39;;;;;;;0.40;0.40;;;;;;;11.48;61.88;94738.22;4952372;28;20193;-69
2023/12/11 11:28:05;;;;;;;0.60;0.60;;;;;;;11.54;61.35;94737.34;4953339;28;20199;-69
2023/12/11 11:30:45;;;;;;;0.40;0.40;;;;;;;11.57;61.21;94724.53;4951766;28;20198;-70
2023/12/11 11:33:10;;;;;;;0.50;0.50;;;;;;;11.54;61.39;94721.53;4956363;28;20189;-69
2023/12/11 11:35:45;;;;;;;0.50;0.50;;;;;;;11.59;62.26;94726.94;4961035;28;20693;-69